sensor_id;sensor_type;location;lat;lon;timestamp;P1;durP1;ratioP1;P2;durP2;ratioP2
28523;SDS011;15734;50.904;6.922;2024-01-30T00:01:59;22.70;;;12.20;;
28523;SDS011;15734;50.904;6.922;2024-01-30T00:04:25;24.83;;;13.02;;
28523;SDS011;15734;50.904;6.922;2024-01-30T00:06:50;23.58;;;12.68;;
28523;SDS011;15734;50.904;6.922;2024-01-30T00:09:18;25.48;;;12.88;;
28523;SDS011;15734;50.904;6.922;2024-01-30T00:11:44;21.23;;;11.18;;
28523;SDS011;15734;50.904;6.922;2024-01-30T00:14:10;33.17;;;13.38;;
28523;SDS011;15734;50.904;6.922;2024-01-30T00:16:36;25.48;;;13.80;;
28523;SDS011;15734;50.904;6.922;2024-01-30T00:19:02;22.35;;;12.18;;
28523;SDS011;15734;50.904;6.922;2024-01-30T00:21:28;31.35;;;14.05;;
28523;SDS011;15734;50.904;6.922;2024-01-30T00:23:54;26.83;;;14.35;;
28523;SDS011;15734;50.904;6.922;2024-01-30T00:26:20;26.60;;;13.55;;
28523;SDS011;15734;50.904;6.922;2024-01-30T00:28:46;22.63;;;12.57;;
28523;SDS011;15734;50.904;6.922;2024-01-30T00:31:12;26.63;;;13.40;;
28523;SDS011;15734;50.904;6.922;2024-01-30T00:33:38;23.52;;;13.77;;
28523;SDS011;15734;50.904;6.922;2024-01-30T00:36:05;24.50;;;13.02;;
28523;SDS011;15734;50.904;6.922;2024-01-30T00:38:34;24.15;;;13.77;;
28523;SDS011;15734;50.904;6.922;2024-01-30T00:41:00;29.77;;;14.02;;
28523;SDS011;15734;50.904;6.922;2024-01-30T00:43:27;22.95;;;12.85;;
28523;SDS011;15734;50.904;6.922;2024-01-30T00:45:53;27.30;;;13.93;;
28523;SDS011;15734;50.904;6.922;2024-01-30T00:48:19;30.30;;;14.85;;
28523;SDS011;15734;50.904;6.922;2024-01-30T00:50:45;24.63;;;14.02;;
28523;SDS011;15734;50.904;6.922;2024-01-30T00:53:11;29.92;;;14.90;;
28523;SDS011;15734;50.904;6.922;2024-01-30T00:55:37;24.98;;;14.80;;
28523;SDS011;15734;50.904;6.922;2024-01-30T00:58:04;30.58;;;14.15;;
28523;SDS011;15734;50.904;6.922;2024-01-30T01:00:30;30.05;;;14.07;;
28523;SDS011;15734;50.904;6.922;2024-01-30T01:02:57;31.05;;;14.75;;
28523;SDS011;15734;50.904;6.922;2024-01-30T01:05:22;34.80;;;14.50;;
28523;SDS011;15734;50.904;6.922;2024-01-30T01:07:48;24.85;;;14.52;;
28523;SDS011;15734;50.904;6.922;2024-01-30T01:10:15;27.63;;;14.77;;
28523;SDS011;15734;50.904;6.922;2024-01-30T01:12:41;27.90;;;14.57;;
28523;SDS011;15734;50.904;6.922;2024-01-30T01:15:07;26.73;;;14.57;;
28523;SDS011;15734;50.904;6.922;2024-01-30T01:17:36;28.15;;;14.50;;
28523;SDS011;15734;50.904;6.922;2024-01-30T01:20:03;26.17;;;14.38;;
28523;SDS011;15734;50.904;6.922;2024-01-30T01:22:30;29.48;;;14.82;;
28523;SDS011;15734;50.904;6.922;2024-01-30T01:24:56;26.67;;;14.82;;
28523;SDS011;15734;50.904;6.922;2024-01-30T01:27:22;29.08;;;14.80;;
28523;SDS011;15734;50.904;6.922;2024-01-30T01:29:48;23.80;;;13.45;;
28523;SDS011;15734;50.904;6.922;2024-01-30T01:32:14;37.92;;;16.15;;
28523;SDS011;15734;50.904;6.922;2024-01-30T01:34:40;30.75;;;15.07;;
28523;SDS011;15734;50.904;6.922;2024-01-30T01:37:06;30.75;;;13.65;;
28523;SDS011;15734;50.904;6.922;2024-01-30T01:39:32;24.60;;;14.15;;
28523;SDS011;15734;50.904;6.922;2024-01-30T01:41:58;30.02;;;16.92;;
28523;SDS011;15734;50.904;6.922;2024-01-30T01:44:24;29.88;;;14.07;;
28523;SDS011;15734;50.904;6.922;2024-01-30T01:46:50;22.48;;;13.10;;
28523;SDS011;15734;50.904;6.922;2024-01-30T01:49:17;25.23;;;14.10;;
28523;SDS011;15734;50.904;6.922;2024-01-30T01:51:44;27.40;;;13.25;;
28523;SDS011;15734;50.904;6.922;2024-01-30T01:54:10;32.72;;;15.50;;
28523;SDS011;15734;50.904;6.922;2024-01-30T01:56:37;25.25;;;12.90;;
28523;SDS011;15734;50.904;6.922;2024-01-30T01:59:06;25.15;;;13.55;;
28523;SDS011;15734;50.904;6.922;2024-01-30T02:01:33;22.42;;;13.43;;
28523;SDS011;15734;50.904;6.922;2024-01-30T02:03:59;34.85;;;14.60;;
28523;SDS011;15734;50.904;6.922;2024-01-30T02:06:26;27.65;;;14.10;;
28523;SDS011;15734;50.904;6.922;2024-01-30T02:08:52;29.00;;;14.07;;
28523;SDS011;15734;50.904;6.922;2024-01-30T02:11:18;30.33;;;14.43;;
28523;SDS011;15734;50.904;6.922;2024-01-30T02:13:44;28.67;;;14.57;;
28523;SDS011;15734;50.904;6.922;2024-01-30T02:16:10;22.77;;;13.48;;
28523;SDS011;15734;50.904;6.922;2024-01-30T02:18:36;31.60;;;14.10;;
28523;SDS011;15734;50.904;6.922;2024-01-30T02:21:08;26.10;;;13.55;;
28523;SDS011;15734;50.904;6.922;2024-01-30T02:23:34;27.65;;;13.93;;
28523;SDS011;15734;50.904;6.922;2024-01-30T02:26:00;34.53;;;14.10;;
28523;SDS011;15734;50.904;6.922;2024-01-30T02:28:26;26.35;;;13.52;;
28523;SDS011;15734;50.904;6.922;2024-01-30T02:30:52;23.38;;;13.77;;
28523;SDS011;15734;50.904;6.922;2024-01-30T02:33:18;25.48;;;14.05;;
28523;SDS011;15734;50.904;6.922;2024-01-30T02:35:46;27.48;;;14.60;;
28523;SDS011;15734;50.904;6.922;2024-01-30T02:38:12;20.70;;;13.55;;
28523;SDS011;15734;50.904;6.922;2024-01-30T02:40:38;37.80;;;14.43;;
28523;SDS011;15734;50.904;6.922;2024-01-30T02:43:04;22.33;;;13.25;;
28523;SDS011;15734;50.904;6.922;2024-01-30T02:45:30;22.85;;;13.05;;
28523;SDS011;15734;50.904;6.922;2024-01-30T02:47:56;27.50;;;12.85;;
28523;SDS011;15734;50.904;6.922;2024-01-30T02:50:22;32.65;;;14.65;;
28523;SDS011;15734;50.904;6.922;2024-01-30T02:52:48;22.38;;;13.45;;
28523;SDS011;15734;50.904;6.922;2024-01-30T02:55:14;24.10;;;12.38;;
28523;SDS011;15734;50.904;6.922;2024-01-30T02:57:42;25.63;;;13.75;;
28523;SDS011;15734;50.904;6.922;2024-01-30T03:00:09;24.02;;;13.40;;
28523;SDS011;15734;50.904;6.922;2024-01-30T03:02:35;26.85;;;13.88;;
28523;SDS011;15734;50.904;6.922;2024-01-30T03:05:01;25.13;;;13.10;;
28523;SDS011;15734;50.904;6.922;2024-01-30T03:07:28;22.23;;;12.75;;
28523;SDS011;15734;50.904;6.922;2024-01-30T03:09:54;23.55;;;12.45;;
28523;SDS011;15734;50.904;6.922;2024-01-30T03:12:20;30.42;;;13.13;;
28523;SDS011;15734;50.904;6.922;2024-01-30T03:14:46;23.23;;;13.35;;
28523;SDS011;15734;50.904;6.922;2024-01-30T03:17:12;28.48;;;13.85;;
28523;SDS011;15734;50.904;6.922;2024-01-30T03:19:38;26.50;;;12.75;;
28523;SDS011;15734;50.904;6.922;2024-01-30T03:22:04;27.65;;;13.57;;
28523;SDS011;15734;50.904;6.922;2024-01-30T03:24:30;28.50;;;13.05;;
28523;SDS011;15734;50.904;6.922;2024-01-30T03:26:56;23.90;;;13.85;;
28523;SDS011;15734;50.904;6.922;2024-01-30T03:29:22;24.73;;;13.45;;
28523;SDS011;15734;50.904;6.922;2024-01-30T03:31:48;27.08;;;12.88;;
28523;SDS011;15734;50.904;6.922;2024-01-30T03:34:14;25.50;;;13.18;;
28523;SDS011;15734;50.904;6.922;2024-01-30T03:36:40;23.60;;;12.63;;
28523;SDS011;15734;50.904;6.922;2024-01-30T03:39:06;23.80;;;13.20;;
28523;SDS011;15734;50.904;6.922;2024-01-30T03:41:32;22.33;;;13.23;;
28523;SDS011;15734;50.904;6.922;2024-01-30T03:43:58;25.17;;;13.55;;
28523;SDS011;15734;50.904;6.922;2024-01-30T03:46:24;26.25;;;13.43;;
28523;SDS011;15734;50.904;6.922;2024-01-30T03:48:50;23.60;;;13.48;;
28523;SDS011;15734;50.904;6.922;2024-01-30T03:51:16;31.92;;;13.35;;
28523;SDS011;15734;50.904;6.922;2024-01-30T03:53:42;30.40;;;14.30;;
28523;SDS011;15734;50.904;6.922;2024-01-30T03:56:09;29.77;;;15.80;;
28523;SDS011;15734;50.904;6.922;2024-01-30T03:58:35;28.55;;;13.35;;
28523;SDS011;15734;50.904;6.922;2024-01-30T04:01:01;25.67;;;14.20;;
28523;SDS011;15734;50.904;6.922;2024-01-30T04:03:27;23.55;;;13.23;;
28523;SDS011;15734;50.904;6.922;2024-01-30T04:05:53;27.05;;;14.02;;
28523;SDS011;15734;50.904;6.922;2024-01-30T04:08:19;30.75;;;15.38;;
28523;SDS011;15734;50.904;6.922;2024-01-30T04:10:46;30.50;;;13.65;;
28523;SDS011;15734;50.904;6.922;2024-01-30T04:13:12;23.75;;;14.10;;
28523;SDS011;15734;50.904;6.922;2024-01-30T04:15:38;23.15;;;13.90;;
28523;SDS011;15734;50.904;6.922;2024-01-30T04:18:04;33.05;;;15.43;;
28523;SDS011;15734;50.904;6.922;2024-01-30T04:20:30;30.60;;;14.50;;
28523;SDS011;15734;50.904;6.922;2024-01-30T04:22:56;25.67;;;13.18;;
28523;SDS011;15734;50.904;6.922;2024-01-30T04:25:22;21.40;;;12.45;;
28523;SDS011;15734;50.904;6.922;2024-01-30T04:27:48;33.47;;;13.55;;
28523;SDS011;15734;50.904;6.922;2024-01-30T04:30:14;28.23;;;12.73;;
28523;SDS011;15734;50.904;6.922;2024-01-30T04:32:40;24.58;;;12.68;;
28523;SDS011;15734;50.904;6.922;2024-01-30T04:35:06;22.98;;;12.45;;
28523;SDS011;15734;50.904;6.922;2024-01-30T04:37:32;27.60;;;13.25;;
28523;SDS011;15734;50.904;6.922;2024-01-30T04:39:58;26.40;;;13.07;;
28523;SDS011;15734;50.904;6.922;2024-01-30T04:42:24;28.40;;;12.73;;
28523;SDS011;15734;50.904;6.922;2024-01-30T04:44:50;23.85;;;11.68;;
28523;SDS011;15734;50.904;6.922;2024-01-30T04:47:16;20.45;;;13.35;;
28523;SDS011;15734;50.904;6.922;2024-01-30T04:49:42;23.58;;;12.13;;
28523;SDS011;15734;50.904;6.922;2024-01-30T04:52:08;24.55;;;13.07;;
28523;SDS011;15734;50.904;6.922;2024-01-30T04:54:35;22.45;;;12.50;;
28523;SDS011;15734;50.904;6.922;2024-01-30T04:57:01;21.45;;;11.38;;
28523;SDS011;15734;50.904;6.922;2024-01-30T04:59:27;30.20;;;13.25;;
28523;SDS011;15734;50.904;6.922;2024-01-30T05:01:54;32.17;;;12.13;;
28523;SDS011;15734;50.904;6.922;2024-01-30T05:04:20;23.25;;;11.68;;
28523;SDS011;15734;50.904;6.922;2024-01-30T05:06:47;29.25;;;12.55;;
28523;SDS011;15734;50.904;6.922;2024-01-30T05:09:13;28.80;;;12.38;;
28523;SDS011;15734;50.904;6.922;2024-01-30T05:11:39;25.58;;;13.25;;
28523;SDS011;15734;50.904;6.922;2024-01-30T05:14:05;28.77;;;12.35;;
28523;SDS011;15734;50.904;6.922;2024-01-30T05:16:31;19.40;;;12.10;;
28523;SDS011;15734;50.904;6.922;2024-01-30T05:18:58;23.90;;;12.32;;
28523;SDS011;15734;50.904;6.922;2024-01-30T05:21:24;20.95;;;12.48;;
28523;SDS011;15734;50.904;6.922;2024-01-30T05:23:50;21.80;;;11.13;;
28523;SDS011;15734;50.904;6.922;2024-01-30T05:26:16;22.83;;;12.10;;
28523;SDS011;15734;50.904;6.922;2024-01-30T05:28:42;25.58;;;12.48;;
28523;SDS011;15734;50.904;6.922;2024-01-30T05:31:09;23.05;;;12.80;;
28523;SDS011;15734;50.904;6.922;2024-01-30T05:33:35;22.30;;;12.20;;
28523;SDS011;15734;50.904;6.922;2024-01-30T05:36:02;23.58;;;12.50;;
28523;SDS011;15734;50.904;6.922;2024-01-30T05:38:28;27.27;;;13.32;;
28523;SDS011;15734;50.904;6.922;2024-01-30T05:40:54;24.98;;;13.68;;
28523;SDS011;15734;50.904;6.922;2024-01-30T05:43:20;27.75;;;14.38;;
28523;SDS011;15734;50.904;6.922;2024-01-30T05:45:46;27.38;;;14.30;;
28523;SDS011;15734;50.904;6.922;2024-01-30T05:48:12;26.55;;;13.90;;
28523;SDS011;15734;50.904;6.922;2024-01-30T05:50:38;30.02;;;14.77;;
28523;SDS011;15734;50.904;6.922;2024-01-30T05:53:04;36.17;;;14.60;;
28523;SDS011;15734;50.904;6.922;2024-01-30T05:55:30;21.40;;;13.68;;
28523;SDS011;15734;50.904;6.922;2024-01-30T05:57:56;24.27;;;13.27;;
28523;SDS011;15734;50.904;6.922;2024-01-30T06:00:22;25.65;;;14.52;;
28523;SDS011;15734;50.904;6.922;2024-01-30T06:02:48;31.50;;;13.80;;
28523;SDS011;15734;50.904;6.922;2024-01-30T06:05:14;29.42;;;14.02;;
28523;SDS011;15734;50.904;6.922;2024-01-30T06:07:40;33.03;;;16.13;;
28523;SDS011;15734;50.904;6.922;2024-01-30T06:10:06;29.15;;;14.32;;
28523;SDS011;15734;50.904;6.922;2024-01-30T06:12:33;26.33;;;14.00;;
28523;SDS011;15734;50.904;6.922;2024-01-30T06:14:59;32.08;;;15.50;;
28523;SDS011;15734;50.904;6.922;2024-01-30T06:17:25;27.67;;;14.63;;
28523;SDS011;15734;50.904;6.922;2024-01-30T06:19:51;30.67;;;15.45;;
28523;SDS011;15734;50.904;6.922;2024-01-30T06:22:17;33.78;;;15.73;;
28523;SDS011;15734;50.904;6.922;2024-01-30T06:24:43;30.50;;;15.40;;
28523;SDS011;15734;50.904;6.922;2024-01-30T06:27:15;25.90;;;14.27;;
28523;SDS011;15734;50.904;6.922;2024-01-30T06:29:42;26.63;;;15.18;;
28523;SDS011;15734;50.904;6.922;2024-01-30T06:32:09;33.53;;;15.50;;
28523;SDS011;15734;50.904;6.922;2024-01-30T06:34:35;29.63;;;15.27;;
28523;SDS011;15734;50.904;6.922;2024-01-30T06:37:01;28.48;;;15.38;;
28523;SDS011;15734;50.904;6.922;2024-01-30T06:39:27;31.98;;;14.70;;
28523;SDS011;15734;50.904;6.922;2024-01-30T06:41:53;36.13;;;15.77;;
28523;SDS011;15734;50.904;6.922;2024-01-30T06:44:19;33.13;;;15.85;;
28523;SDS011;15734;50.904;6.922;2024-01-30T06:46:45;25.58;;;15.88;;
28523;SDS011;15734;50.904;6.922;2024-01-30T06:49:11;32.08;;;16.58;;
28523;SDS011;15734;50.904;6.922;2024-01-30T06:51:37;27.67;;;15.18;;
28523;SDS011;15734;50.904;6.922;2024-01-30T06:54:03;32.85;;;15.65;;
28523;SDS011;15734;50.904;6.922;2024-01-30T06:56:29;26.10;;;15.63;;
28523;SDS011;15734;50.904;6.922;2024-01-30T06:58:55;30.08;;;16.52;;
28523;SDS011;15734;50.904;6.922;2024-01-30T07:01:27;25.83;;;15.48;;
28523;SDS011;15734;50.904;6.922;2024-01-30T07:03:53;36.17;;;17.45;;
28523;SDS011;15734;50.904;6.922;2024-01-30T07:06:19;30.52;;;14.60;;
28523;SDS011;15734;50.904;6.922;2024-01-30T07:08:45;25.88;;;14.48;;
28523;SDS011;15734;50.904;6.922;2024-01-30T07:11:17;25.30;;;14.25;;
28523;SDS011;15734;50.904;6.922;2024-01-30T07:13:43;29.58;;;15.50;;
28523;SDS011;15734;50.904;6.922;2024-01-30T07:16:09;28.30;;;14.38;;
28523;SDS011;15734;50.904;6.922;2024-01-30T07:18:35;25.83;;;14.48;;
28523;SDS011;15734;50.904;6.922;2024-01-30T07:21:01;32.10;;;14.65;;
28523;SDS011;15734;50.904;6.922;2024-01-30T07:23:27;35.22;;;15.73;;
28523;SDS011;15734;50.904;6.922;2024-01-30T07:25:54;28.90;;;14.50;;
28523;SDS011;15734;50.904;6.922;2024-01-30T07:28:20;27.77;;;14.07;;
28523;SDS011;15734;50.904;6.922;2024-01-30T07:30:46;29.45;;;15.27;;
28523;SDS011;15734;50.904;6.922;2024-01-30T07:33:13;34.03;;;14.02;;
28523;SDS011;15734;50.904;6.922;2024-01-30T07:35:39;27.30;;;15.32;;
28523;SDS011;15734;50.904;6.922;2024-01-30T07:38:05;30.05;;;15.75;;
28523;SDS011;15734;50.904;6.922;2024-01-30T07:40:31;26.40;;;14.00;;
28523;SDS011;15734;50.904;6.922;2024-01-30T07:42:58;35.53;;;14.70;;
28523;SDS011;15734;50.904;6.922;2024-01-30T07:45:24;24.42;;;14.63;;
28523;SDS011;15734;50.904;6.922;2024-01-30T07:47:52;23.35;;;13.98;;
28523;SDS011;15734;50.904;6.922;2024-01-30T07:50:18;27.70;;;15.00;;
28523;SDS011;15734;50.904;6.922;2024-01-30T07:52:44;25.60;;;13.68;;
28523;SDS011;15734;50.904;6.922;2024-01-30T07:55:10;27.50;;;13.68;;
28523;SDS011;15734;50.904;6.922;2024-01-30T07:57:38;25.02;;;15.30;;
28523;SDS011;15734;50.904;6.922;2024-01-30T08:00:05;28.10;;;13.82;;
28523;SDS011;15734;50.904;6.922;2024-01-30T08:02:32;25.95;;;14.80;;
28523;SDS011;15734;50.904;6.922;2024-01-30T08:04:58;26.73;;;14.20;;
28523;SDS011;15734;50.904;6.922;2024-01-30T08:07:24;24.75;;;13.02;;
28523;SDS011;15734;50.904;6.922;2024-01-30T08:09:50;31.13;;;14.43;;
28523;SDS011;15734;50.904;6.922;2024-01-30T08:12:16;26.80;;;13.93;;
28523;SDS011;15734;50.904;6.922;2024-01-30T08:14:42;28.00;;;13.57;;
28523;SDS011;15734;50.904;6.922;2024-01-30T08:17:08;24.92;;;14.32;;
28523;SDS011;15734;50.904;6.922;2024-01-30T08:19:34;31.75;;;14.25;;
28523;SDS011;15734;50.904;6.922;2024-01-30T08:22:00;28.95;;;13.90;;
28523;SDS011;15734;50.904;6.922;2024-01-30T08:24:26;26.00;;;13.98;;
28523;SDS011;15734;50.904;6.922;2024-01-30T08:26:52;28.95;;;14.30;;
28523;SDS011;15734;50.904;6.922;2024-01-30T08:29:17;28.83;;;13.80;;
28523;SDS011;15734;50.904;6.922;2024-01-30T08:31:44;22.63;;;14.32;;
28523;SDS011;15734;50.904;6.922;2024-01-30T08:34:11;32.15;;;14.35;;
28523;SDS011;15734;50.904;6.922;2024-01-30T08:36:37;26.95;;;14.05;;
28523;SDS011;15734;50.904;6.922;2024-01-30T08:39:03;23.02;;;13.00;;
28523;SDS011;15734;50.904;6.922;2024-01-30T08:41:30;25.00;;;13.02;;
28523;SDS011;15734;50.904;6.922;2024-01-30T08:43:56;22.15;;;12.80;;
28523;SDS011;15734;50.904;6.922;2024-01-30T08:46:22;23.00;;;13.25;;
28523;SDS011;15734;50.904;6.922;2024-01-30T08:48:48;22.63;;;13.18;;
28523;SDS011;15734;50.904;6.922;2024-01-30T08:51:14;22.58;;;12.98;;
28523;SDS011;15734;50.904;6.922;2024-01-30T08:53:40;24.50;;;12.63;;
28523;SDS011;15734;50.904;6.922;2024-01-30T08:56:06;25.20;;;13.95;;
28523;SDS011;15734;50.904;6.922;2024-01-30T08:58:32;23.08;;;12.82;;
28523;SDS011;15734;50.904;6.922;2024-01-30T09:00:58;28.10;;;12.00;;
28523;SDS011;15734;50.904;6.922;2024-01-30T09:03:25;25.63;;;13.05;;
28523;SDS011;15734;50.904;6.922;2024-01-30T09:05:51;28.33;;;14.05;;
28523;SDS011;15734;50.904;6.922;2024-01-30T09:08:16;24.05;;;13.57;;
28523;SDS011;15734;50.904;6.922;2024-01-30T09:10:42;24.38;;;12.25;;
28523;SDS011;15734;50.904;6.922;2024-01-30T09:13:09;25.50;;;12.63;;
28523;SDS011;15734;50.904;6.922;2024-01-30T09:15:35;22.95;;;12.05;;
28523;SDS011;15734;50.904;6.922;2024-01-30T09:18:01;22.73;;;12.80;;
28523;SDS011;15734;50.904;6.922;2024-01-30T09:20:27;24.95;;;13.23;;
28523;SDS011;15734;50.904;6.922;2024-01-30T09:22:53;25.13;;;13.38;;
28523;SDS011;15734;50.904;6.922;2024-01-30T09:25:19;26.42;;;13.00;;
28523;SDS011;15734;50.904;6.922;2024-01-30T09:27:46;28.75;;;13.15;;
28523;SDS011;15734;50.904;6.922;2024-01-30T09:30:12;23.42;;;13.27;;
28523;SDS011;15734;50.904;6.922;2024-01-30T09:32:39;21.85;;;12.55;;
28523;SDS011;15734;50.904;6.922;2024-01-30T09:35:05;29.02;;;12.77;;
28523;SDS011;15734;50.904;6.922;2024-01-30T09:37:31;25.92;;;13.15;;
28523;SDS011;15734;50.904;6.922;2024-01-30T09:39:57;30.45;;;13.50;;
28523;SDS011;15734;50.904;6.922;2024-01-30T09:44:49;28.83;;;13.00;;
28523;SDS011;15734;50.904;6.922;2024-01-30T09:47:17;20.80;;;12.25;;
28523;SDS011;15734;50.904;6.922;2024-01-30T09:49:43;20.77;;;12.60;;
28523;SDS011;15734;50.904;6.922;2024-01-30T09:52:09;23.02;;;11.82;;
28523;SDS011;15734;50.904;6.922;2024-01-30T09:54:36;27.10;;;12.48;;
28523;SDS011;15734;50.904;6.922;2024-01-30T09:57:03;19.20;;;12.32;;
28523;SDS011;15734;50.904;6.922;2024-01-30T09:59:30;25.77;;;11.80;;
28523;SDS011;15734;50.904;6.922;2024-01-30T10:01:56;25.33;;;12.90;;
28523;SDS011;15734;50.904;6.922;2024-01-30T10:04:22;25.17;;;12.00;;
28523;SDS011;15734;50.904;6.922;2024-01-30T10:06:48;18.83;;;11.40;;
28523;SDS011;15734;50.904;6.922;2024-01-30T10:09:14;25.42;;;12.93;;
28523;SDS011;15734;50.904;6.922;2024-01-30T10:11:40;22.98;;;11.23;;
28523;SDS011;15734;50.904;6.922;2024-01-30T10:14:06;21.63;;;11.52;;
28523;SDS011;15734;50.904;6.922;2024-01-30T10:16:32;23.40;;;11.55;;
28523;SDS011;15734;50.904;6.922;2024-01-30T10:19:00;18.10;;;11.45;;
28523;SDS011;15734;50.904;6.922;2024-01-30T10:21:26;28.77;;;12.02;;
28523;SDS011;15734;50.904;6.922;2024-01-30T10:23:52;23.67;;;12.13;;
28523;SDS011;15734;50.904;6.922;2024-01-30T10:26:18;19.02;;;12.18;;
28523;SDS011;15734;50.904;6.922;2024-01-30T10:28:44;21.85;;;11.93;;
28523;SDS011;15734;50.904;6.922;2024-01-30T10:31:10;30.80;;;12.25;;
28523;SDS011;15734;50.904;6.922;2024-01-30T10:33:36;21.67;;;11.27;;
28523;SDS011;15734;50.904;6.922;2024-01-30T10:36:05;24.45;;;12.27;;
28523;SDS011;15734;50.904;6.922;2024-01-30T10:38:32;22.42;;;12.07;;
28523;SDS011;15734;50.904;6.922;2024-01-30T10:40:59;27.92;;;11.57;;
28523;SDS011;15734;50.904;6.922;2024-01-30T10:43:40;24.88;;;12.77;;
28523;SDS011;15734;50.904;6.922;2024-01-30T10:48:41;24.65;;;11.75;;
28523;SDS011;15734;50.904;6.922;2024-01-30T10:51:09;24.70;;;12.23;;
28523;SDS011;15734;50.904;6.922;2024-01-30T10:53:35;22.20;;;11.45;;
28523;SDS011;15734;50.904;6.922;2024-01-30T10:56:02;24.85;;;11.63;;
28523;SDS011;15734;50.904;6.922;2024-01-30T10:58:29;25.92;;;11.00;;
28523;SDS011;15734;50.904;6.922;2024-01-30T11:00:55;20.25;;;11.13;;
28523;SDS011;15734;50.904;6.922;2024-01-30T11:03:21;23.85;;;11.48;;
28523;SDS011;15734;50.904;6.922;2024-01-30T11:05:50;21.80;;;11.10;;
28523;SDS011;15734;50.904;6.922;2024-01-30T11:08:23;20.50;;;11.02;;
28523;SDS011;15734;50.904;6.922;2024-01-30T11:10:54;24.83;;;10.73;;
28523;SDS011;15734;50.904;6.922;2024-01-30T11:13:20;16.33;;;9.85;;
28523;SDS011;15734;50.904;6.922;2024-01-30T11:15:47;23.00;;;10.55;;
28523;SDS011;15734;50.904;6.922;2024-01-30T11:18:22;18.95;;;9.57;;
28523;SDS011;15734;50.904;6.922;2024-01-30T11:20:48;18.83;;;10.13;;
28523;SDS011;15734;50.904;6.922;2024-01-30T11:23:14;17.67;;;10.00;;
28523;SDS011;15734;50.904;6.922;2024-01-30T11:25:40;21.52;;;9.43;;
28523;SDS011;15734;50.904;6.922;2024-01-30T11:28:06;23.67;;;9.80;;
28523;SDS011;15734;50.904;6.922;2024-01-30T11:30:38;24.70;;;10.27;;
28523;SDS011;15734;50.904;6.922;2024-01-30T11:35:34;17.85;;;10.85;;
28523;SDS011;15734;50.904;6.922;2024-01-30T11:38:00;20.45;;;9.70;;
28523;SDS011;15734;50.904;6.922;2024-01-30T11:40:27;21.63;;;10.05;;
28523;SDS011;15734;50.904;6.922;2024-01-30T11:42:54;19.40;;;9.70;;
28523;SDS011;15734;50.904;6.922;2024-01-30T11:45:20;19.92;;;10.13;;
28523;SDS011;15734;50.904;6.922;2024-01-30T11:47:46;20.45;;;9.82;;
28523;SDS011;15734;50.904;6.922;2024-01-30T11:50:12;20.00;;;10.13;;
28523;SDS011;15734;50.904;6.922;2024-01-30T11:52:39;19.42;;;9.27;;
28523;SDS011;15734;50.904;6.922;2024-01-30T11:55:05;18.35;;;9.48;;
28523;SDS011;15734;50.904;6.922;2024-01-30T11:57:33;16.23;;;9.10;;
28523;SDS011;15734;50.904;6.922;2024-01-30T12:00:01;18.50;;;9.50;;
28523;SDS011;15734;50.904;6.922;2024-01-30T12:02:29;16.33;;;8.32;;
28523;SDS011;15734;50.904;6.922;2024-01-30T12:04:55;18.77;;;9.38;;
28523;SDS011;15734;50.904;6.922;2024-01-30T12:07:21;19.63;;;8.65;;
28523;SDS011;15734;50.904;6.922;2024-01-30T12:09:53;18.08;;;8.13;;
28523;SDS011;15734;50.904;6.922;2024-01-30T12:12:20;22.73;;;10.40;;
28523;SDS011;15734;50.904;6.922;2024-01-30T12:14:47;19.60;;;9.48;;
28523;SDS011;15734;50.904;6.922;2024-01-30T12:17:22;19.40;;;9.43;;
28523;SDS011;15734;50.904;6.922;2024-01-30T12:19:48;16.10;;;9.48;;
28523;SDS011;15734;50.904;6.922;2024-01-30T12:22:14;20.98;;;9.52;;
28523;SDS011;15734;50.904;6.922;2024-01-30T12:24:40;20.35;;;8.70;;
28523;SDS011;15734;50.904;6.922;2024-01-30T12:27:06;18.20;;;9.82;;
28523;SDS011;15734;50.904;6.922;2024-01-30T12:29:32;22.25;;;10.05;;
28523;SDS011;15734;50.904;6.922;2024-01-30T12:31:58;18.45;;;10.30;;
28523;SDS011;15734;50.904;6.922;2024-01-30T12:34:25;19.83;;;9.98;;
28523;SDS011;15734;50.904;6.922;2024-01-30T12:36:51;15.80;;;9.60;;
28523;SDS011;15734;50.904;6.922;2024-01-30T12:39:17;17.63;;;8.68;;
28523;SDS011;15734;50.904;6.922;2024-01-30T12:41:43;21.63;;;10.05;;
28523;SDS011;15734;50.904;6.922;2024-01-30T12:44:09;22.42;;;9.98;;
28523;SDS011;15734;50.904;6.922;2024-01-30T12:46:35;20.45;;;9.73;;
28523;SDS011;15734;50.904;6.922;2024-01-30T12:49:01;14.43;;;8.85;;
28523;SDS011;15734;50.904;6.922;2024-01-30T12:51:27;17.80;;;9.00;;
28523;SDS011;15734;50.904;6.922;2024-01-30T12:53:53;29.92;;;9.93;;
28523;SDS011;15734;50.904;6.922;2024-01-30T12:56:19;20.05;;;9.82;;
28523;SDS011;15734;50.904;6.922;2024-01-30T12:58:45;18.83;;;9.50;;
28523;SDS011;15734;50.904;6.922;2024-01-30T13:01:11;18.55;;;9.25;;
28523;SDS011;15734;50.904;6.922;2024-01-30T13:03:37;19.05;;;8.35;;
28523;SDS011;15734;50.904;6.922;2024-01-30T13:06:03;26.98;;;9.73;;
28523;SDS011;15734;50.904;6.922;2024-01-30T13:08:29;23.52;;;10.48;;
28523;SDS011;15734;50.904;6.922;2024-01-30T13:10:55;18.40;;;8.75;;
28523;SDS011;15734;50.904;6.922;2024-01-30T13:13:21;19.90;;;8.73;;
28523;SDS011;15734;50.904;6.922;2024-01-30T13:15:47;26.30;;;8.68;;
28523;SDS011;15734;50.904;6.922;2024-01-30T13:18:14;16.45;;;8.23;;
28523;SDS011;15734;50.904;6.922;2024-01-30T13:20:40;20.40;;;9.23;;
28523;SDS011;15734;50.904;6.922;2024-01-30T13:23:06;16.00;;;8.35;;
28523;SDS011;15734;50.904;6.922;2024-01-30T13:25:31;21.05;;;10.10;;
28523;SDS011;15734;50.904;6.922;2024-01-30T13:27:57;15.63;;;7.72;;
28523;SDS011;15734;50.904;6.922;2024-01-30T13:30:23;20.35;;;9.07;;
28523;SDS011;15734;50.904;6.922;2024-01-30T13:32:49;18.50;;;9.45;;
28523;SDS011;15734;50.904;6.922;2024-01-30T13:35:15;18.27;;;9.35;;
28523;SDS011;15734;50.904;6.922;2024-01-30T13:37:41;19.63;;;9.30;;
28523;SDS011;15734;50.904;6.922;2024-01-30T13:40:07;22.13;;;9.32;;
28523;SDS011;15734;50.904;6.922;2024-01-30T13:42:34;19.50;;;9.15;;
28523;SDS011;15734;50.904;6.922;2024-01-30T13:45:00;23.05;;;9.77;;
28523;SDS011;15734;50.904;6.922;2024-01-30T13:47:26;24.02;;;9.52;;
28523;SDS011;15734;50.904;6.922;2024-01-30T13:49:51;20.48;;;9.15;;
28523;SDS011;15734;50.904;6.922;2024-01-30T13:52:18;20.40;;;9.45;;
28523;SDS011;15734;50.904;6.922;2024-01-30T13:54:44;23.33;;;10.18;;
28523;SDS011;15734;50.904;6.922;2024-01-30T13:57:10;24.98;;;10.18;;
28523;SDS011;15734;50.904;6.922;2024-01-30T13:59:37;21.55;;;10.02;;
28523;SDS011;15734;50.904;6.922;2024-01-30T14:02:03;20.50;;;9.50;;
28523;SDS011;15734;50.904;6.922;2024-01-30T14:04:29;17.48;;;8.30;;
28523;SDS011;15734;50.904;6.922;2024-01-30T14:06:55;17.92;;;8.15;;
28523;SDS011;15734;50.904;6.922;2024-01-30T14:09:21;16.48;;;7.65;;
28523;SDS011;15734;50.904;6.922;2024-01-30T14:11:47;11.98;;;7.18;;
28523;SDS011;15734;50.904;6.922;2024-01-30T14:14:13;21.88;;;8.23;;
28523;SDS011;15734;50.904;6.922;2024-01-30T14:16:39;18.77;;;7.18;;
28523;SDS011;15734;50.904;6.922;2024-01-30T14:19:05;18.63;;;6.75;;
28523;SDS011;15734;50.904;6.922;2024-01-30T14:21:31;14.13;;;6.03;;
28523;SDS011;15734;50.904;6.922;2024-01-30T14:23:57;13.57;;;5.97;;
28523;SDS011;15734;50.904;6.922;2024-01-30T14:26:23;14.75;;;6.90;;